Time;durP1;ratioP1;P1;durP2;ratioP2;P2;SDS_P1;SDS_P2;PMS_P1;PMS_P2;Temp;Humidity;BMP_temperature;BMP_pressure;BME280_temperature;BME280_humidity;BME280_pressure;Samples;Min_cycle;Max_cycle;Signal;HPM_P1;HPM_P2
2023/08/01 00:01:00;;;;;;;4.50;0.93;;;;;;;20.69;68.60;99628.56;5045336;27;97036;-82
2023/08/01 00:03:25;;;;;;;0.80;0.70;;;;;;;20.64;68.63;99631.66;5044744;27;97642;-82
2023/08/01 00:05:51;;;;;;;1.00;0.90;;;;;;;20.67;68.65;99636.81;5064141;27;98298;-81
2023/08/01 00:08:16;;;;;;;1.77;0.70;;;;;;;20.63;68.75;99642.09;5045725;27;99602;-82
2023/08/01 00:10:42;;;;;;;2.40;0.87;;;;;;;20.58;68.66;99611.63;5049200;27;97454;-81
2023/08/01 00:13:08;;;;;;;0.80;0.70;;;;;;;20.55;68.47;99612.81;5064242;27;97688;-81
2023/08/01 00:15:34;;;;;;;1.20;0.80;;;;;;;20.57;68.69;99610.16;5042782;27;99741;-81
2023/08/01 00:17:59;;;;;;;2.03;0.67;;;;;;;20.55;68.63;99585.59;5051870;27;100167;-82
2023/08/01 00:20:25;;;;;;;1.10;0.90;;;;;;;20.56;68.58;99594.72;5046695;27;96999;-82
2023/08/01 00:22:50;;;;;;;2.40;0.70;;;;;;;20.57;68.58;99596.94;5043604;27;97486;-82
2023/08/01 00:25:17;;;;;;;0.90;0.90;;;;;;;20.56;68.42;99587.06;5049009;27;100761;-81
2023/08/01 00:27:42;;;;;;;0.97;0.60;;;;;;;20.53;68.40;99593.81;5061617;27;96987;-80
2023/08/01 00:30:08;;;;;;;1.73;0.90;;;;;;;20.53;68.31;99618.97;5060749;27;96847;-79
2023/08/01 00:32:34;;;;;;;1.00;0.90;;;;;;;20.53;68.40;99581.94;5045171;27;96891;-81
2023/08/01 00:34:59;;;;;;;1.00;0.73;;;;;;;20.50;68.31;99575.47;5060968;27;97105;-82
2023/08/01 00:37:25;;;;;;;1.10;0.90;;;;;;;20.47;68.39;99593.38;5061038;27;99207;-82
2023/08/01 00:39:50;;;;;;;0.70;0.63;;;;;;;20.50;68.23;99578.25;5044875;27;96776;-82
2023/08/01 00:42:16;;;;;;;1.23;0.57;;;;;;;20.44;68.33;99558.25;5046768;27;97626;-81
2023/08/01 00:44:41;;;;;;;1.10;1.00;;;;;;;20.47;68.49;99550.72;5048381;27;100609;-81
2023/08/01 00:47:07;;;;;;;0.90;0.67;;;;;;;20.46;68.31;99561.19;5048046;27;99981;-82
2023/08/01 00:49:32;;;;;;;0.90;0.80;;;;;;;20.45;68.45;99551.31;5062426;27;96938;-82
2023/08/01 00:51:58;;;;;;;1.37;1.00;;;;;;;20.43;68.55;99553.97;5047475;27;97009;-81
2023/08/01 00:54:23;;;;;;;0.90;0.73;;;;;;;20.43;68.44;99559.56;5045133;27;99031;-82
2023/08/01 00:56:49;;;;;;;1.57;0.70;;;;;;;20.43;68.47;99559.56;5062584;27;99555;-82
2023/08/01 00:59:15;;;;;;;0.90;0.60;;;;;;;20.42;68.44;99538.53;5063368;27;97297;-82
2023/08/01 01:01:40;;;;;;;0.80;0.70;;;;;;;20.41;68.43;99541.91;5065342;27;97328;-82
2023/08/01 01:04:06;;;;;;;0.70;0.70;;;;;;;20.40;68.41;99541.16;5061978;27;102603;-81
2023/08/01 01:06:37;;;;;;;1.20;0.70;;;;;;;20.39;68.47;99548.09;5063865;27;97688;-81
2023/08/01 01:09:13;;;;;;;0.80;0.67;;;;;;;20.38;68.66;99538.22;5061619;27;97178;-82
2023/08/01 01:11:39;;;;;;;1.67;0.90;;;;;;;20.38;68.48;99565.44;5062280;27;96790;-83
2023/08/01 01:14:04;;;;;;;0.70;0.70;;;;;;;20.37;68.69;99530.44;5045732;27;99647;-82
2023/08/01 01:16:29;;;;;;;1.20;0.70;;;;;;;20.33;68.67;99519.72;5044521;27;98766;-82
2023/08/01 01:18:55;;;;;;;0.80;0.70;;;;;;;20.36;68.62;99512.19;5045494;27;97190;-82
2023/08/01 01:21:20;;;;;;;2.30;0.67;;;;;;;20.36;68.49;99510.16;5063551;27;97100;-82
2023/08/01 01:23:47;;;;;;;0.80;0.80;;;;;;;20.34;68.47;99507.22;5064190;27;97560;-83
2023/08/01 01:26:13;;;;;;;0.70;0.60;;;;;;;20.36;68.58;99512.94;5049594;27;98937;-82
2023/08/01 01:28:40;;;;;;;1.23;0.57;;;;;;;20.37;68.60;99522.06;5067157;27;97521;-82
2023/08/01 01:31:06;;;;;;;4.33;0.70;;;;;;;20.36;68.64;99515.72;5052465;27;96548;-82
2023/08/01 01:33:32;;;;;;;0.83;0.83;;;;;;;20.35;68.61;99522.66;5047923;27;99304;-82
2023/08/01 01:36:00;;;;;;;0.70;0.60;;;;;;;20.38;68.61;99520.75;5044760;27;99450;-82
2023/08/01 01:38:25;;;;;;;0.70;0.60;;;;;;;20.36;68.74;99507.34;5048288;27;97256;-83
2023/08/01 01:40:51;;;;;;;0.80;0.77;;;;;;;20.37;68.71;99508.84;5068058;27;97310;-83
2023/08/01 01:43:16;;;;;;;0.87;0.87;;;;;;;20.38;68.62;99513.09;5047658;27;106410;-83
2023/08/01 01:45:41;;;;;;;0.70;0.70;;;;;;;20.37;68.68;99494.88;5048677;27;99534;-82
2023/08/01 01:48:07;;;;;;;5.67;0.87;;;;;;;20.36;68.68;99501.03;5049459;27;97595;-82
2023/08/01 01:50:32;;;;;;;0.73;0.73;;;;;;;20.37;68.71;99497.66;5049673;27;99855;-83
2023/08/01 01:52:58;;;;;;;1.13;0.70;;;;;;;20.36;68.72;99473.84;5065042;27;100293;-83
2023/08/01 01:55:23;;;;;;;6.27;0.90;;;;;;;20.37;68.89;99482.94;5066800;27;99549;-82
2023/08/01 01:57:48;;;;;;;1.17;0.83;;;;;;;20.37;68.59;99489.28;5047350;27;97130;-83
2023/08/01 02:00:14;;;;;;;1.43;0.73;;;;;;;20.37;68.76;99496.91;5047230;27;97372;-81
2023/08/01 02:02:39;;;;;;;1.33;1.00;;;;;;;20.37;68.81;99485.75;5047017;27;99557;-83
2023/08/01 02:05:05;;;;;;;0.93;0.90;;;;;;;20.37;68.82;99463.41;5047286;27;99195;-82
2023/08/01 02:07:30;;;;;;;0.80;0.80;;;;;;;20.34;68.80;99475.75;5047336;27;97221;-82
2023/08/01 02:09:56;;;;;;;0.70;0.70;;;;;;;20.35;68.95;99464.00;5054573;27;97379;-81
2023/08/01 02:12:21;;;;;;;2.90;0.90;;;;;;;20.33;68.56;99463.84;5047533;27;100288;-83
2023/08/01 02:14:46;;;;;;;1.03;0.93;;;;;;;20.31;68.88;99455.34;5049287;27;101093;-82
2023/08/01 02:17:12;;;;;;;0.70;0.60;;;;;;;20.30;68.97;99439.13;5046955;27;97413;-83
2023/08/01 02:19:37;;;;;;;2.00;0.70;;;;;;;20.31;68.91;99460.19;5049671;27;97600;-83
2023/08/01 02:22:02;;;;;;;1.00;0.90;;;;;;;20.26;68.88;99447.22;5053433;27;99492;-81
2023/08/01 02:24:28;;;;;;;1.00;1.00;;;;;;;20.28;69.02;99472.50;5065095;27;96918;-81
2023/08/01 02:26:53;;;;;;;0.93;0.80;;;;;;;20.26;69.05;99452.81;5047091;27;97151;-82
2023/08/01 02:29:18;;;;;;;0.93;0.93;;;;;;;20.29;68.91;99455.16;5045184;27;97263;-82
2023/08/01 02:31:44;;;;;;;1.37;1.00;;;;;;;20.29;68.97;99446.78;5063777;27;98290;-82
2023/08/01 02:34:09;;;;;;;1.20;1.00;;;;;;;20.27;68.95;99443.84;5063999;27;99617;-81
2023/08/01 02:36:34;;;;;;;0.83;0.83;;;;;;;20.26;68.88;99431.22;5046483;27;97747;-82
2023/08/01 02:39:00;;;;;;;1.20;1.10;;;;;;;20.27;68.91;99429.88;5062923;27;97043;-82
2023/08/01 02:41:25;;;;;;;1.40;1.03;;;;;;;20.27;68.90;99426.38;5050016;27;99233;-82
2023/08/01 02:43:50;;;;;;;0.93;0.93;;;;;;;20.29;69.07;99420.94;5052492;27;99056;-81
2023/08/01 02:46:16;;;;;;;0.80;0.80;;;;;;;20.28;68.86;99420.19;5046906;27;97783;-82
2023/08/01 02:48:41;;;;;;;1.80;0.80;;;;;;;20.29;68.87;99424.44;5052780;27;97016;-82
2023/08/01 02:51:09;;;;;;;2.73;1.07;;;;;;;20.28;68.82;99405.47;5047537;27;105578;-83
2023/08/01 02:53:35;;;;;;;4.40;1.00;;;;;;;20.31;68.86;99409.91;5062980;27;99107;-80
2023/08/01 02:56:00;;;;;;;1.20;1.10;;;;;;;20.28;68.95;99417.38;5047499;27;97189;-82
2023/08/01 02:58:26;;;;;;;3.07;1.10;;;;;;;20.29;68.93;99402.09;5065209;27;97362;-82
2023/08/01 03:00:51;;;;;;;0.90;0.90;;;;;;;20.27;68.88;99387.97;5066243;27;98226;-81
2023/08/01 03:03:16;;;;;;;1.00;0.90;;;;;;;20.28;68.92;99408.28;5048334;27;106129;-81
2023/08/01 03:05:42;;;;;;;1.17;0.80;;;;;;;20.26;69.00;99405.34;5044346;27;98085;-81
2023/08/01 03:08:07;;;;;;;1.37;1.27;;;;;;;20.23;68.82;99395.34;5065304;27;97214;-82
2023/08/01 03:10:33;;;;;;;1.07;0.97;;;;;;;20.28;69.07;99411.81;5048192;27;99602;-81
2023/08/01 03:12:58;;;;;;;1.23;1.00;;;;;;;20.24;69.11;99396.81;5066282;27;97063;-81
2023/08/01 03:15:23;;;;;;;1.00;1.00;;;;;;;20.22;69.06;99391.81;5047125;27;97192;-81
2023/08/01 03:17:49;;;;;;;1.93;1.20;;;;;;;20.22;69.09;99394.63;5065668;27;96915;-81
2023/08/01 03:20:14;;;;;;;0.80;0.80;;;;;;;20.24;69.19;99377.25;5063898;27;97601;-81
2023/08/01 03:22:40;;;;;;;0.80;0.80;;;;;;;20.26;68.89;99369.75;5044554;27;99525;-81
2023/08/01 03:25:10;;;;;;;1.10;1.00;;;;;;;20.27;69.08;99360.03;5065716;27;97043;-81
2023/08/01 03:27:35;;;;;;;1.10;1.00;;;;;;;20.26;68.82;99357.84;5049684;27;97653;-81
2023/08/01 03:30:01;;;;;;;1.40;1.30;;;;;;;20.28;68.99;99355.94;5061338;27;100486;-80
2023/08/01 03:32:26;;;;;;;1.13;0.97;;;;;;;20.25;68.91;99362.69;5046378;27;98977;-80
2023/08/01 03:34:52;;;;;;;1.00;1.00;;;;;;;20.22;68.81;99355.53;5048402;27;97862;-81
2023/08/01 03:37:17;;;;;;;1.10;1.00;;;;;;;20.23;68.92;99356.22;5051058;27;97503;-81
2023/08/01 03:39:43;;;;;;;1.20;1.10;;;;;;;20.25;68.76;99367.56;5046473;27;99197;-80
2023/08/01 03:42:09;;;;;;;1.17;0.87;;;;;;;20.25;68.88;99359.19;5063693;27;97345;-81
2023/08/01 03:44:34;;;;;;;2.50;0.93;;;;;;;20.23;68.79;99356.97;5064922;27;97182;-79
2023/08/01 03:46:59;;;;;;;1.30;1.20;;;;;;;20.20;68.82;99360.94;5065852;27;97037;-80
2023/08/01 03:49:25;;;;;;;1.27;1.17;;;;;;;20.16;68.80;99361.38;5064020;27;100931;-81
2023/08/01 03:51:50;;;;;;;1.67;1.57;;;;;;;20.15;68.85;99376.66;5066420;27;97639;-81
2023/08/01 03:54:15;;;;;;;1.13;0.90;;;;;;;20.08;68.98;99379.59;5050630;27;97119;-81
2023/08/01 03:56:43;;;;;;;2.07;1.03;;;;;;;20.07;69.05;99375.34;5064693;27;96965;-81
2023/08/01 03:59:09;;;;;;;3.47;1.07;;;;;;;20.04;69.18;99360.50;5045643;27;99460;-81
2023/08/01 04:01:35;;;;;;;1.40;1.30;;;;;;;20.02;69.05;99374.34;5061985;27;99026;-81
2023/08/01 04:04:00;;;;;;;2.70;1.17;;;;;;;20.03;69.04;99373.00;5063070;27;98150;-81
2023/08/01 04:06:25;;;;;;;2.67;1.60;;;;;;;20.01;69.02;99361.69;5045235;27;97388;-82
2023/08/01 04:08:51;;;;;;;1.93;1.30;;;;;;;20.00;69.12;99367.84;5048489;27;99615;-81
2023/08/01 04:11:16;;;;;;;1.20;1.10;;;;;;;20.01;68.93;99380.47;5045210;27;99162;-80
2023/08/01 04:13:42;;;;;;;1.23;1.20;;;;;;;20.00;69.16;99370.66;5050917;27;103925;-81
2023/08/01 04:16:07;;;;;;;1.30;1.00;;;;;;;19.96;69.06;99375.94;5046201;27;97074;-82
2023/08/01 04:18:32;;;;;;;1.10;1.10;;;;;;;19.97;69.04;99383.72;5063277;27;107134;-82
2023/08/01 04:20:58;;;;;;;3.67;1.07;;;;;;;19.96;69.07;99424.13;5063758;27;97507;-81
2023/08/01 04:23:23;;;;;;;1.27;1.17;;;;;;;19.98;68.94;99376.09;5063855;27;96638;-81
2023/08/01 04:25:48;;;;;;;1.37;1.00;;;;;;;19.93;68.95;99394.59;5064004;27;97152;-82
2023/08/01 04:28:14;;;;;;;1.40;1.03;;;;;;;19.92;68.97;99375.66;5044791;27;101542;-81
2023/08/01 04:30:39;;;;;;;2.20;1.30;;;;;;;19.92;69.02;99387.53;5046815;27;100449;-80
2023/08/01 04:33:05;;;;;;;0.80;0.70;;;;;;;19.91;68.98;99379.75;5044799;27;97181;-81
2023/08/01 04:35:30;;;;;;;2.30;1.10;;;;;;;19.92;69.15;99384.75;5045256;27;96980;-82
2023/08/01 04:37:55;;;;;;;1.20;1.10;;;;;;;19.93;68.86;99388.28;5063452;27;97380;-81
2023/08/01 04:40:21;;;;;;;1.43;0.87;;;;;;;19.96;68.88;99381.53;5065146;27;99475;-82
2023/08/01 04:42:46;;;;;;;1.30;1.20;;;;;;;19.96;68.87;99381.53;5056851;27;97320;-81
2023/08/01 04:45:11;;;;;;;1.00;1.00;;;;;;;19.96;68.85;99381.53;5061558;27;97140;-82
2023/08/01 04:47:37;;;;;;;1.10;1.00;;;;;;;19.98;68.95;99376.09;5063786;27;98131;-81
2023/08/01 04:50:02;;;;;;;1.03;1.03;;;;;;;19.94;68.90;99368.13;5062568;27;97066;-80
2023/08/01 04:52:27;;;;;;;2.60;1.20;;;;;;;19.96;68.97;99376.66;5063247;27;97347;-81
2023/08/01 04:54:53;;;;;;;1.40;1.30;;;;;;;19.97;68.79;99374.63;5064686;27;97402;-82
2023/08/01 04:57:18;;;;;;;3.50;1.00;;;;;;;20.02;68.85;99356.84;5045210;27;99461;-82
2023/08/01 04:59:43;;;;;;;1.30;0.90;;;;;;;20.03;68.76;99352.72;5045081;27;99389;-81
2023/08/01 05:02:09;;;;;;;1.73;1.20;;;;;;;20.03;68.89;99367.41;5044843;27;97674;-81
2023/08/01 05:04:34;;;;;;;0.87;0.87;;;;;;;20.06;68.72;99360.66;5050170;27;97310;-80
2023/08/01 05:06:59;;;;;;;1.30;0.87;;;;;;;20.05;68.67;99372.41;5065518;27;99838;-81
2023/08/01 05:09:25;;;;;;;2.10;1.07;;;;;;;20.05;68.47;99366.84;5040637;27;107903;-81
2023/08/01 05:11:50;;;;;;;1.37;0.80;;;;;;;20.05;68.53;99366.84;5066536;27;97170;-80
2023/08/01 05:14:15;;;;;;;1.07;1.07;;;;;;;20.07;68.43;99372.56;5049841;27;97331;-81
2023/08/01 05:16:41;;;;;;;1.13;1.03;;;;;;;20.05;68.42;99370.34;5067388;27;97317;-80
2023/08/01 05:19:06;;;;;;;4.00;1.20;;;;;;;20.04;68.54;99380.06;5067058;27;97074;-81
2023/08/01 05:21:31;;;;;;;1.00;0.80;;;;;;;20.04;68.55;99382.84;5052879;27;97025;-81
2023/08/01 05:23:57;;;;;;;1.20;1.10;;;;;;;20.06;68.43;99382.25;5049647;27;97082;-81
2023/08/01 05:26:22;;;;;;;0.97;0.97;;;;;;;20.07;68.42;99400.50;5067546;27;97403;-81
2023/08/01 05:28:47;;;;;;;1.00;0.90;;;;;;;20.04;68.48;99387.69;5052944;27;99336;-80
2023/08/01 05:31:13;;;;;;;0.80;0.80;;;;;;;20.02;68.42;99387.56;5051577;27;97624;-81
2023/08/01 05:33:38;;;;;;;2.10;1.00;;;;;;;20.04;68.42;99390.47;5070418;27;97179;-81
2023/08/01 05:36:04;;;;;;;3.73;0.90;;;;;;;20.03;68.40;99384.16;5067535;27;99290;-82
2023/08/01 05:38:29;;;;;;;1.43;1.00;;;;;;;20.04;68.46;99382.09;5050023;27;99071;-80
2023/08/01 05:40:54;;;;;;;3.83;1.20;;;;;;;20.01;68.48;99378.44;5069752;27;97258;-81
2023/08/01 05:43:19;;;;;;;1.73;1.10;;;;;;;19.98;68.52;99370.50;5069541;27;97042;-81
2023/08/01 05:45:45;;;;;;;1.17;1.07;;;;;;;19.96;68.49;99375.94;5068593;27;110120;-81
2023/08/01 05:48:10;;;;;;;3.03;1.37;;;;;;;19.98;68.42;99384.47;5070499;27;97170;-81
2023/08/01 05:50:36;;;;;;;1.13;1.03;;;;;;;20.00;68.48;99376.25;5069463;27;97549;-80
2023/08/01 05:53:01;;;;;;;1.93;1.20;;;;;;;20.02;68.51;99390.34;5051492;27;97233;-82
2023/08/01 05:55:26;;;;;;;1.10;1.00;;;;;;;20.03;68.35;99381.38;5069236;27;101528;-80
2023/08/01 05:57:52;;;;;;;6.03;1.50;;;;;;;20.06;68.43;99385.03;5067368;27;98959;-81
2023/08/01 06:00:21;;;;;;;1.37;1.27;;;;;;;20.09;68.40;99383.88;5051739;27;97389;-81
2023/08/01 06:02:47;;;;;;;1.20;1.10;;;;;;;20.07;68.32;99381.66;5069713;27;98093;-81
2023/08/01 06:05:12;;;;;;;1.67;1.33;;;;;;;20.04;68.38;99388.44;5070852;27;98132;-81
2023/08/01 06:07:38;;;;;;;1.70;1.60;;;;;;;20.08;68.47;99383.13;5070924;27;97437;-80
2023/08/01 06:10:04;;;;;;;1.73;1.30;;;;;;;20.09;68.29;99398.56;5070358;27;97284;-80
2023/08/01 06:12:29;;;;;;;1.53;1.43;;;;;;;20.07;68.35;99398.41;5071776;27;100033;-80
2023/08/01 06:14:55;;;;;;;3.70;1.73;;;;;;;20.06;68.24;99393.41;5050854;27;99188;-81
2023/08/01 06:17:20;;;;;;;1.70;1.60;;;;;;;20.03;68.42;99395.31;5052804;27;99290;-82
2023/08/01 06:19:46;;;;;;;1.87;1.73;;;;;;;20.10;68.54;99396.50;5071843;27;97059;-81
2023/08/01 06:22:11;;;;;;;2.30;1.80;;;;;;;20.08;68.34;99393.56;5069117;27;97581;-82
2023/08/01 06:24:36;;;;;;;3.50;1.90;;;;;;;20.08;68.22;99393.56;5051709;27;101792;-80
2023/08/01 06:27:02;;;;;;;2.10;1.90;;;;;;;20.12;68.34;99393.84;5069971;27;100291;-80
2023/08/01 06:29:27;;;;;;;1.97;1.87;;;;;;;20.10;68.30;99385.31;5055990;27;96830;-81
2023/08/01 06:31:53;;;;;;;2.70;2.27;;;;;;;20.16;68.23;99392.09;5071433;27;97575;-80
2023/08/01 06:34:18;;;;;;;2.67;2.47;;;;;;;20.16;68.43;99396.94;5052825;27;99667;-81
2023/08/01 06:36:43;;;;;;;2.40;2.20;;;;;;;20.17;68.32;99393.56;5071543;27;97162;-81
2023/08/01 06:39:09;;;;;;;3.10;2.83;;;;;;;20.22;68.35;99405.06;5054016;27;97633;-80
2023/08/01 06:41:34;;;;;;;2.33;2.23;;;;;;;20.21;68.27;99412.69;5053946;27;97039;-80
2023/08/01 06:43:59;;;;;;;4.97;2.50;;;;;;;20.20;68.33;99411.22;5055482;27;99709;-81
2023/08/01 06:46:25;;;;;;;5.57;3.03;;;;;;;20.22;68.33;99396.66;5072301;27;97553;-81
2023/08/01 06:48:50;;;;;;;2.87;2.67;;;;;;;20.26;68.23;99394.16;5072215;27;97145;-81
2023/08/01 06:51:15;;;;;;;2.73;2.53;;;;;;;20.25;68.21;99396.22;5071633;27;97639;-81
2023/08/01 06:53:41;;;;;;;4.73;2.10;;;;;;;20.25;68.10;99399.00;5070785;27;98009;-82
2023/08/01 06:56:06;;;;;;;8.50;2.50;;;;;;;20.24;68.11;99411.53;5073161;27;97243;-80
2023/08/01 06:58:32;;;;;;;3.33;2.70;;;;;;;20.26;68.16;99419.31;5058176;27;96651;-79
2023/08/01 07:00:57;;;;;;;3.47;2.83;;;;;;;20.29;68.22;99413.25;5053602;27;97483;-80
2023/08/01 07:03:22;;;;;;;4.80;3.27;;;;;;;20.30;68.03;99405.63;5071738;27;98446;-81
2023/08/01 07:05:48;;;;;;;3.70;3.33;;;;;;;20.32;67.97;99411.34;5069154;27;97627;-80
2023/08/01 07:08:13;;;;;;;2.97;2.70;;;;;;;20.33;68.34;99404.44;5070664;27;97099;-80
2023/08/01 07:10:39;;;;;;;5.47;2.93;;;;;;;20.33;68.04;99413.56;5053850;27;97301;-79
2023/08/01 07:13:04;;;;;;;3.50;3.20;;;;;;;20.36;68.03;99434.72;5045294;27;99053;-81
2023/08/01 07:15:31;;;;;;;3.57;3.00;;;;;;;20.44;68.17;99401.06;5051164;27;99488;-80
2023/08/01 07:17:56;;;;;;;3.80;3.27;;;;;;;20.49;68.03;99422.34;5071899;27;97136;-79
2023/08/01 07:20:22;;;;;;;3.20;2.90;;;;;;;20.53;68.05;99425.44;5071037;27;97426;-80
2023/08/01 07:22:47;;;;;;;3.70;3.40;;;;;;;20.62;68.00;99430.28;5052754;27;99130;-81
2023/08/01 07:25:13;;;;;;;3.27;2.93;;;;;;;20.63;67.88;99418.50;5068999;27;96766;-81
2023/08/01 07:27:39;;;;;;;3.17;2.87;;;;;;;20.64;67.78;99445.13;5070560;27;97133;-81
2023/08/01 07:30:05;;;;;;;3.20;3.00;;;;;;;20.66;67.75;99425.69;5050475;27;96966;-81
2023/08/01 07:32:31;;;;;;;3.50;3.20;;;;;;;20.64;67.84;99422.75;5043662;27;100129;-82
2023/08/01 07:34:56;;;;;;;3.90;3.47;;;;;;;20.62;67.73;99425.41;5068336;27;98714;-80
2023/08/01 07:37:21;;;;;;;4.27;3.50;;;;;;;20.61;67.74;99434.41;5050718;27;97301;-81
2023/08/01 07:39:47;;;;;;;3.67;3.37;;;;;;;20.61;67.62;99443.53;5050555;27;97895;-81
2023/08/01 07:42:12;;;;;;;5.77;3.47;;;;;;;20.56;67.85;99429.84;5049425;27;100950;-80
2023/08/01 07:44:37;;;;;;;3.50;3.20;;;;;;;20.63;67.85;99435.28;5068793;27;96484;-81
2023/08/01 07:47:03;;;;;;;6.00;3.40;;;;;;;20.66;67.77;99427.78;5052431;27;97177;-81
2023/08/01 07:49:28;;;;;;;4.33;3.17;;;;;;;20.70;67.79;99451.16;5053432;27;97294;-80
2023/08/01 07:51:54;;;;;;;8.20;4.37;;;;;;;20.75;67.74;99446.59;5068939;27;101616;-80
2023/08/01 07:54:19;;;;;;;3.23;2.93;;;;;;;20.77;67.56;99443.94;5056539;27;99312;-81
2023/08/01 07:56:48;;;;;;;13.70;3.60;;;;;;;20.80;67.55;99426.69;5069536;27;97159;-81
2023/08/01 07:59:14;;;;;;;4.60;3.20;;;;;;;20.84;67.52;99477.28;5070473;27;97436;-81
2023/08/01 08:01:40;;;;;;;4.07;3.67;;;;;;;20.92;67.22;99426.81;5050881;27;100977;-80
2023/08/01 08:04:05;;;;;;;5.87;3.20;;;;;;;20.97;67.36;99422.94;5065173;27;99160;-82
2023/08/01 08:06:31;;;;;;;4.50;3.67;;;;;;;21.03;67.04;99448.59;5052494;27;98292;-82
2023/08/01 08:08:56;;;;;;;4.77;3.37;;;;;;;21.07;67.23;99425.75;5052392;27;96931;-80
2023/08/01 08:11:23;;;;;;;4.80;3.03;;;;;;;21.06;67.02;99415.88;5069579;27;97163;-80
2023/08/01 08:13:48;;;;;;;7.40;3.93;;;;;;;21.08;66.98;99433.53;5068581;27;97295;-82
2023/08/01 08:16:14;;;;;;;4.73;3.73;;;;;;;21.07;66.94;99446.06;5068736;27;96806;-81
2023/08/01 08:18:39;;;;;;;3.53;3.23;;;;;;;21.03;66.83;99426.22;5048706;27;97023;-79
2023/08/01 08:21:04;;;;;;;8.43;3.93;;;;;;;21.09;66.97;99445.47;5066334;27;100351;-80
2023/08/01 08:23:30;;;;;;;4.87;3.80;;;;;;;21.11;66.75;99432.34;5053776;27;99039;-79
2023/08/01 08:25:55;;;;;;;4.77;3.63;;;;;;;21.11;66.73;99428.81;5069723;27;97114;-81
2023/08/01 08:28:29;;;;;;;3.93;3.60;;;;;;;21.14;66.50;99436.03;5052591;27;96955;-80
2023/08/01 08:30:55;;;;;;;4.57;3.47;;;;;;;21.22;66.62;99419.78;5072638;27;97036;-81
2023/08/01 08:33:21;;;;;;;5.00;3.40;;;;;;;21.35;66.69;99430.47;5046883;27;99147;-83
2023/08/01 08:35:47;;;;;;;3.93;3.27;;;;;;;21.44;66.28;99421.28;5043832;27;97071;-80
2023/08/01 08:38:12;;;;;;;2.80;2.60;;;;;;;21.54;66.15;99411.50;5065996;27;99184;-81
2023/08/01 08:40:44;;;;;;;4.90;3.10;;;;;;;21.62;65.76;99416.91;5047115;27;98848;-78
2023/08/01 08:43:10;;;;;;;3.00;2.80;;;;;;;21.66;65.88;99405.97;5068192;27;99403;-81
2023/08/01 08:45:40;;;;;;;5.57;2.60;;;;;;;21.68;65.89;99417.31;5068533;27;97221;-80
2023/08/01 08:48:12;;;;;;;3.33;2.60;;;;;;;21.61;65.80;99421.78;5066538;27;97514;-82
2023/08/01 08:50:39;;;;;;;2.83;2.57;;;;;;;21.58;65.68;99430.63;5049162;27;99327;-79
2023/08/01 08:53:11;;;;;;;3.30;2.20;;;;;;;21.59;65.78;99441.25;5065968;27;97368;-82
2023/08/01 08:55:37;;;;;;;3.10;2.53;;;;;;;21.61;65.37;99443.44;5067468;27;97526;-81
2023/08/01 08:58:03;;;;;;;3.10;2.50;;;;;;;21.73;65.41;99430.25;5067759;27;96827;-81
2023/08/01 09:00:29;;;;;;;3.63;2.50;;;;;;;21.85;65.17;99427.53;5067415;27;97938;-80
2023/08/01 09:02:54;;;;;;;2.50;2.20;;;;;;;21.99;64.88;99434.81;5066303;27;99118;-81
2023/08/01 09:05:26;;;;;;;2.33;2.13;;;;;;;22.03;64.75;99437.13;5055420;27;97521;-82
2023/08/01 09:07:54;;;;;;;3.40;2.43;;;;;;;22.09;64.63;99438.25;5066718;27;96606;-81
2023/08/01 09:10:20;;;;;;;3.90;2.70;;;;;;;22.14;64.14;99437.19;5063414;27;100377;-82
2023/08/01 09:12:46;;;;;;;4.60;2.40;;;;;;;22.05;63.94;99429.59;5064882;27;97457;-81
2023/08/01 09:15:13;;;;;;;5.47;2.47;;;;;;;22.09;64.28;99423.50;5067330;27;97291;-83
2023/08/01 09:17:55;;;;;;;2.50;2.30;;;;;;;22.25;63.36;99424.56;5052740;27;97229;-81
2023/08/01 09:20:20;;;;;;;3.53;2.40;;;;;;;22.43;63.61;99430.59;5065958;27;97803;-82
2023/08/01 09:22:47;;;;;;;4.03;2.70;;;;;;;22.52;63.40;99443.78;5047747;27;99080;-80
2023/08/01 09:25:13;;;;;;;4.00;2.33;;;;;;;22.58;63.40;99438.56;5065521;27;98215;-82
2023/08/01 09:27:38;;;;;;;3.50;2.57;;;;;;;22.64;63.05;99436.91;5063551;27;98021;-82
2023/08/01 09:30:07;;;;;;;2.60;2.40;;;;;;;22.63;62.45;99440.31;5047845;27;100495;-83
2023/08/01 09:32:33;;;;;;;3.50;2.40;;;;;;;22.59;62.76;99445.63;5064470;27;99512;-81
2023/08/01 09:35:03;;;;;;;2.33;1.93;;;;;;;22.65;62.61;99432.75;5046488;27;97521;-83
2023/08/01 09:37:42;;;;;;;2.90;1.93;;;;;;;22.84;61.05;99440.97;5046107;27;96952;-82
2023/08/01 09:40:11;;;;;;;2.17;1.97;;;;;;;22.96;61.93;99443.75;5044126;27;99266;-82
2023/08/01 09:42:41;;;;;;;5.70;2.30;;;;;;;23.01;61.52;99428.66;5047644;27;100154;-81
2023/08/01 09:45:17;;;;;;;3.90;2.27;;;;;;;23.10;60.91;99436.97;5067596;27;96887;-81
2023/08/01 09:47:43;;;;;;;2.97;2.00;;;;;;;23.33;61.69;99427.09;5067568;27;96928;-81
2023/08/01 09:50:10;;;;;;;3.27;2.17;;;;;;;23.40;61.27;99432.47;5047315;27;100998;-80
2023/08/01 09:52:36;;;;;;;2.90;1.80;;;;;;;23.34;60.76;99426.50;5051020;27;99196;-81
2023/08/01 09:55:02;;;;;;;2.50;1.63;;;;;;;23.32;60.90;99434.75;5069307;27;96889;-81
2023/08/01 09:57:30;;;;;;;2.83;2.00;;;;;;;23.41;60.79;99436.75;5068890;27;98667;-81
2023/08/01 09:59:59;;;;;;;3.07;2.27;;;;;;;23.50;59.87;99435.16;5050842;27;99729;-82
2023/08/01 10:02:28;;;;;;;4.07;1.97;;;;;;;23.56;60.36;99439.03;5068442;27;97097;-83
2023/08/01 10:04:56;;;;;;;4.07;2.00;;;;;;;23.67;60.19;99452.34;5065763;27;97714;-81
2023/08/01 10:07:26;;;;;;;2.10;1.60;;;;;;;23.66;59.64;99447.31;5067316;27;97465;-82
2023/08/01 10:09:54;;;;;;;4.77;1.87;;;;;;;23.65;59.64;99452.22;5065262;27;97358;-81
2023/08/01 10:12:20;;;;;;;2.07;1.73;;;;;;;23.64;59.59;99439.50;5048132;27;99183;-81
2023/08/01 10:14:45;;;;;;;1.93;1.73;;;;;;;23.46;59.43;99434.91;5047848;27;97472;-81
2023/08/01 10:17:11;;;;;;;1.73;1.63;;;;;;;23.42;59.72;99424.16;5066636;27;97352;-82
2023/08/01 10:19:37;;;;;;;2.40;1.97;;;;;;;23.43;59.58;99434.06;5066913;27;97646;-82
2023/08/01 10:22:06;;;;;;;3.13;1.80;;;;;;;23.31;59.51;99472.59;5051717;27;99060;-80
2023/08/01 10:24:32;;;;;;;2.97;2.00;;;;;;;23.37;59.35;99441.38;5045538;27;97053;-81
2023/08/01 10:26:58;;;;;;;3.03;2.00;;;;;;;23.43;59.25;99450.16;5067077;27;96806;-80
2023/08/01 10:29:35;;;;;;;3.83;1.30;;;;;;;23.47;55.91;99436.38;5065451;27;97885;-81
2023/08/01 10:32:00;;;;;;;2.60;1.63;;;;;;;23.54;58.43;99441.00;5064664;27;100356;-80
2023/08/01 10:34:26;;;;;;;1.53;1.40;;;;;;;23.58;58.35;99436.34;5048460;27;96603;-81
2023/08/01 10:36:58;;;;;;;2.10;1.50;;;;;;;23.56;57.87;99432.69;5048640;27;97024;-80
2023/08/01 10:39:26;;;;;;;1.10;1.00;;;;;;;23.48;57.99;99435.03;5065608;27;97105;-81
2023/08/01 10:42:03;;;;;;;2.40;1.30;;;;;;;23.38;57.10;99440.75;5064258;27;100222;-79
2023/08/01 10:44:30;;;;;;;4.77;1.50;;;;;;;23.37;58.42;99439.28;5065020;27;96826;-82
2023/08/01 10:46:57;;;;;;;1.20;1.10;;;;;;;23.44;58.32;99440.38;5064158;27;97368;-80
2023/08/01 10:49:44;;;;;;;2.57;1.20;;;;;;;23.51;56.96;99433.78;5065531;27;96928;-81
2023/08/01 10:52:21;;;;;;;1.40;1.17;;;;;;;23.58;57.58;99433.56;5063849;27;100870;-80
2023/08/01 10:54:47;;;;;;;1.40;1.10;;;;;;;23.70;58.00;99423.00;5044634;27;96752;-79
2023/08/01 10:57:19;;;;;;;1.10;1.00;;;;;;;23.80;57.42;99429.22;5069523;27;97169;-81
2023/08/01 10:59:45;;;;;;;1.60;1.00;;;;;;;23.93;57.01;99427.09;5064886;27;98235;-82
2023/08/01 11:02:10;;;;;;;1.40;1.03;;;;;;;23.96;56.66;99432.22;5049361;27;100788;-81
2023/08/01 11:04:36;;;;;;;1.57;1.13;;;;;;;23.98;56.47;99428.81;5064992;27;98463;-82
2023/08/01 11:07:03;;;;;;;2.10;1.30;;;;;;;24.14;56.68;99418.50;5069077;27;97377;-82
2023/08/01 11:09:29;;;;;;;1.60;1.10;;;;;;;24.15;56.37;99425.59;5063187;27;101375;-82
2023/08/01 11:12:00;;;;;;;1.87;0.90;;;;;;;24.10;56.54;99432.31;5065380;27;96770;-81
2023/08/01 11:14:28;;;;;;;1.57;0.90;;;;;;;24.23;56.51;99417.59;5063805;27;97332;-83
2023/08/01 11:16:55;;;;;;;1.67;1.00;;;;;;;24.40;55.64;99423.53;5063674;27;97366;-81
2023/08/01 11:19:23;;;;;;;1.60;0.97;;;;;;;24.52;55.28;99415.75;5064574;27;97167;-81
2023/08/01 11:21:49;;;;;;;2.00;1.30;;;;;;;24.40;55.37;99445.28;5064517;27;97162;-82
2023/08/01 11:24:16;;;;;;;1.80;1.23;;;;;;;24.26;55.31;99433.25;5063620;27;97184;-82
2023/08/01 11:26:47;;;;;;;0.90;0.80;;;;;;;24.15;54.93;99436.84;5048176;27;97059;-80